sensor_id;sensor_type;location;lat;lon;timestamp;P1;durP1;ratioP1;P2;durP2;ratioP2
4744;SDS011;2386;42.138;24.746;2023-07-29T00:00:30;130.57;;;118.93;;
4744;SDS011;2386;42.138;24.746;2023-07-29T00:06:17;57.43;;;51.90;;
4744;SDS011;2386;42.138;24.746;2023-07-29T00:08:43;67.17;;;60.73;;
4744;SDS011;2386;42.138;24.746;2023-07-29T00:11:08;49.23;;;45.13;;
4744;SDS011;2386;42.138;24.746;2023-07-29T00:13:34;71.07;;;65.57;;
4744;SDS011;2386;42.138;24.746;2023-07-29T00:15:59;60.07;;;55.63;;
4744;SDS011;2386;42.138;24.746;2023-07-29T00:18:24;98.57;;;90.23;;
4744;SDS011;2386;42.138;24.746;2023-07-29T00:20:50;117.13;;;108.03;;
4744;SDS011;2386;42.138;24.746;2023-07-29T00:23:16;158.70;;;146.10;;
4744;SDS011;2386;42.138;24.746;2023-07-29T00:25:44;152.70;;;140.13;;
4744;SDS011;2386;42.138;24.746;2023-07-29T00:28:09;151.13;;;138.73;;
4744;SDS011;2386;42.138;24.746;2023-07-29T00:30:34;142.90;;;131.80;;
4744;SDS011;2386;42.138;24.746;2023-07-29T00:33:00;150.67;;;139.07;;
4744;SDS011;2386;42.138;24.746;2023-07-29T00:35:25;166.03;;;153.00;;
4744;SDS011;2386;42.138;24.746;2023-07-29T00:37:51;146.37;;;134.93;;
4744;SDS011;2386;42.138;24.746;2023-07-29T00:40:19;128.17;;;118.43;;
4744;SDS011;2386;42.138;24.746;2023-07-29T00:42:46;151.53;;;139.33;;
4744;SDS011;2386;42.138;24.746;2023-07-29T00:45:11;142.97;;;132.13;;
4744;SDS011;2386;42.138;24.746;2023-07-29T00:47:37;145.63;;;133.93;;
4744;SDS011;2386;42.138;24.746;2023-07-29T00:50:03;142.70;;;131.63;;
4744;SDS011;2386;42.138;24.746;2023-07-29T00:52:31;163.93;;;150.67;;
4744;SDS011;2386;42.138;24.746;2023-07-29T00:54:56;146.07;;;134.87;;
4744;SDS011;2386;42.138;24.746;2023-07-29T00:57:21;150.47;;;138.63;;
4744;SDS011;2386;42.138;24.746;2023-07-29T00:59:50;161.63;;;148.67;;
4744;SDS011;2386;42.138;24.746;2023-07-29T01:02:16;148.93;;;136.97;;
4744;SDS011;2386;42.138;24.746;2023-07-29T01:04:41;145.90;;;134.27;;
4744;SDS011;2386;42.138;24.746;2023-07-29T01:09:54;141.27;;;130.27;;
4744;SDS011;2386;42.138;24.746;2023-07-29T01:17:54;153.27;;;140.53;;
4744;SDS011;2386;42.138;24.746;2023-07-29T01:20:24;139.20;;;128.10;;
4744;SDS011;2386;42.138;24.746;2023-07-29T01:22:51;142.10;;;131.33;;
4744;SDS011;2386;42.138;24.746;2023-07-29T01:25:16;154.53;;;142.20;;
4744;SDS011;2386;42.138;24.746;2023-07-29T01:27:43;160.67;;;148.07;;
4744;SDS011;2386;42.138;24.746;2023-07-29T01:30:10;171.83;;;156.47;;
4744;SDS011;2386;42.138;24.746;2023-07-29T01:38:38;213.77;;;195.97;;
4744;SDS011;2386;42.138;24.746;2023-07-29T01:41:07;232.67;;;211.77;;
4744;SDS011;2386;42.138;24.746;2023-07-29T01:43:33;234.70;;;214.43;;
4744;SDS011;2386;42.138;24.746;2023-07-29T01:46:04;269.10;;;245.77;;
4744;SDS011;2386;42.138;24.746;2023-07-29T01:48:29;279.87;;;255.83;;
4744;SDS011;2386;42.138;24.746;2023-07-29T01:50:56;309.23;;;283.20;;
4744;SDS011;2386;42.138;24.746;2023-07-29T01:53:22;313.27;;;285.57;;
4744;SDS011;2386;42.138;24.746;2023-07-29T01:55:47;309.50;;;283.10;;
4744;SDS011;2386;42.138;24.746;2023-07-29T01:58:13;286.13;;;260.80;;
4744;SDS011;2386;42.138;24.746;2023-07-29T02:00:39;267.03;;;243.60;;
4744;SDS011;2386;42.138;24.746;2023-07-29T02:03:05;336.40;;;305.30;;
4744;SDS011;2386;42.138;24.746;2023-07-29T02:05:30;356.10;;;322.90;;
4744;SDS011;2386;42.138;24.746;2023-07-29T02:07:55;294.47;;;266.37;;
4744;SDS011;2386;42.138;24.746;2023-07-29T02:10:21;313.27;;;285.40;;
4744;SDS011;2386;42.138;24.746;2023-07-29T02:12:46;419.50;;;376.40;;
4744;SDS011;2386;42.138;24.746;2023-07-29T02:15:12;407.57;;;366.87;;
4744;SDS011;2386;42.138;24.746;2023-07-29T02:17:37;347.13;;;314.20;;
4744;SDS011;2386;42.138;24.746;2023-07-29T02:20:03;397.17;;;358.57;;
4744;SDS011;2386;42.138;24.746;2023-07-29T02:22:29;342.70;;;309.97;;
4744;SDS011;2386;42.138;24.746;2023-07-29T02:24:54;390.20;;;352.90;;
4744;SDS011;2386;42.138;24.746;2023-07-29T02:27:20;244.80;;;223.70;;
4744;SDS011;2386;42.138;24.746;2023-07-29T02:29:45;252.97;;;230.17;;
4744;SDS011;2386;42.138;24.746;2023-07-29T02:32:10;429.13;;;385.23;;
4744;SDS011;2386;42.138;24.746;2023-07-29T02:34:36;261.47;;;239.73;;
4744;SDS011;2386;42.138;24.746;2023-07-29T02:37:01;297.83;;;272.17;;
4744;SDS011;2386;42.138;24.746;2023-07-29T02:39:27;398.07;;;358.30;;
4744;SDS011;2386;42.138;24.746;2023-07-29T02:41:52;413.60;;;371.77;;
4744;SDS011;2386;42.138;24.746;2023-07-29T02:44:17;392.67;;;354.23;;
4744;SDS011;2386;42.138;24.746;2023-07-29T02:46:44;390.93;;;352.20;;
4744;SDS011;2386;42.138;24.746;2023-07-29T02:49:09;411.13;;;367.13;;
4744;SDS011;2386;42.138;24.746;2023-07-29T02:51:35;444.87;;;374.17;;
4744;SDS011;2386;42.138;24.746;2023-07-29T02:54:00;392.23;;;353.77;;
4744;SDS011;2386;42.138;24.746;2023-07-29T02:56:26;557.70;;;385.80;;
4744;SDS011;2386;42.138;24.746;2023-07-29T02:58:51;438.93;;;367.37;;
4744;SDS011;2386;42.138;24.746;2023-07-29T03:01:17;495.40;;;383.37;;
4744;SDS011;2386;42.138;24.746;2023-07-29T03:03:42;463.13;;;394.10;;
4744;SDS011;2386;42.138;24.746;2023-07-29T03:06:09;542.27;;;385.97;;
4744;SDS011;2386;42.138;24.746;2023-07-29T03:08:36;360.30;;;322.70;;
4744;SDS011;2386;42.138;24.746;2023-07-29T03:11:06;259.73;;;237.00;;
4744;SDS011;2386;42.138;24.746;2023-07-29T03:13:32;229.07;;;208.47;;
4744;SDS011;2386;42.138;24.746;2023-07-29T03:16:05;202.17;;;184.87;;
4744;SDS011;2386;42.138;24.746;2023-07-29T03:18:34;192.00;;;175.10;;
4744;SDS011;2386;42.138;24.746;2023-07-29T03:21:01;179.97;;;163.63;;
4744;SDS011;2386;42.138;24.746;2023-07-29T03:26:48;156.90;;;143.73;;
4744;SDS011;2386;42.138;24.746;2023-07-29T03:29:14;158.93;;;144.10;;
4744;SDS011;2386;42.138;24.746;2023-07-29T03:31:39;119.07;;;109.67;;
4744;SDS011;2386;42.138;24.746;2023-07-29T03:34:04;119.83;;;110.10;;
4744;SDS011;2386;42.138;24.746;2023-07-29T03:36:30;121.20;;;111.27;;
4744;SDS011;2386;42.138;24.746;2023-07-29T03:38:55;140.40;;;128.83;;
4744;SDS011;2386;42.138;24.746;2023-07-29T03:41:20;119.27;;;109.63;;
4744;SDS011;2386;42.138;24.746;2023-07-29T03:43:46;98.67;;;89.53;;
4744;SDS011;2386;42.138;24.746;2023-07-29T03:46:11;112.50;;;103.43;;
4744;SDS011;2386;42.138;24.746;2023-07-29T03:48:36;112.60;;;103.60;;
4744;SDS011;2386;42.138;24.746;2023-07-29T03:51:02;105.33;;;96.33;;
4744;SDS011;2386;42.138;24.746;2023-07-29T03:53:27;107.87;;;87.73;;
4744;SDS011;2386;42.138;24.746;2023-07-29T03:55:53;92.73;;;84.90;;
4744;SDS011;2386;42.138;24.746;2023-07-29T03:58:18;102.57;;;93.73;;
4744;SDS011;2386;42.138;24.746;2023-07-29T04:00:44;102.33;;;94.40;;
4744;SDS011;2386;42.138;24.746;2023-07-29T04:03:09;94.03;;;86.53;;
4744;SDS011;2386;42.138;24.746;2023-07-29T04:05:34;88.40;;;80.97;;
4744;SDS011;2386;42.138;24.746;2023-07-29T04:08:00;100.47;;;90.67;;
4744;SDS011;2386;42.138;24.746;2023-07-29T04:10:25;83.93;;;77.03;;
4744;SDS011;2386;42.138;24.746;2023-07-29T04:12:50;92.83;;;85.63;;
4744;SDS011;2386;42.138;24.746;2023-07-29T04:15:16;81.07;;;74.03;;
4744;SDS011;2386;42.138;24.746;2023-07-29T04:17:41;85.33;;;77.67;;
4744;SDS011;2386;42.138;24.746;2023-07-29T04:20:07;95.03;;;86.00;;
4744;SDS011;2386;42.138;24.746;2023-07-29T04:22:33;78.50;;;71.90;;
4744;SDS011;2386;42.138;24.746;2023-07-29T04:24:58;86.07;;;79.47;;
4744;SDS011;2386;42.138;24.746;2023-07-29T04:27:23;83.47;;;76.63;;
4744;SDS011;2386;42.138;24.746;2023-07-29T04:29:49;97.63;;;88.57;;
4744;SDS011;2386;42.138;24.746;2023-07-29T04:32:14;89.63;;;81.13;;
4744;SDS011;2386;42.138;24.746;2023-07-29T04:34:39;95.87;;;88.67;;
4744;SDS011;2386;42.138;24.746;2023-07-29T04:37:05;103.50;;;94.83;;
4744;SDS011;2386;42.138;24.746;2023-07-29T04:39:30;98.47;;;89.63;;
4744;SDS011;2386;42.138;24.746;2023-07-29T04:41:56;109.17;;;100.07;;
4744;SDS011;2386;42.138;24.746;2023-07-29T04:44:22;94.53;;;86.17;;
4744;SDS011;2386;42.138;24.746;2023-07-29T04:46:47;98.47;;;90.43;;
4744;SDS011;2386;42.138;24.746;2023-07-29T04:52:34;107.37;;;97.83;;
4744;SDS011;2386;42.138;24.746;2023-07-29T04:55:00;108.43;;;99.53;;
4744;SDS011;2386;42.138;24.746;2023-07-29T04:57:25;114.90;;;104.60;;
4744;SDS011;2386;42.138;24.746;2023-07-29T04:59:50;100.13;;;92.00;;
4744;SDS011;2386;42.138;24.746;2023-07-29T05:02:16;107.80;;;99.57;;
4744;SDS011;2386;42.138;24.746;2023-07-29T05:04:41;108.00;;;99.07;;
4744;SDS011;2386;42.138;24.746;2023-07-29T05:07:07;120.90;;;111.47;;
4744;SDS011;2386;42.138;24.746;2023-07-29T05:09:32;123.57;;;113.40;;
4744;SDS011;2386;42.138;24.746;2023-07-29T05:11:57;128.70;;;118.77;;
4744;SDS011;2386;42.138;24.746;2023-07-29T05:14:23;122.13;;;112.30;;
4744;SDS011;2386;42.138;24.746;2023-07-29T05:16:48;117.63;;;108.40;;
4744;SDS011;2386;42.138;24.746;2023-07-29T05:19:14;122.13;;;112.23;;
4744;SDS011;2386;42.138;24.746;2023-07-29T05:21:39;130.80;;;120.17;;
4744;SDS011;2386;42.138;24.746;2023-07-29T05:24:05;117.20;;;107.83;;
4744;SDS011;2386;42.138;24.746;2023-07-29T05:26:30;151.77;;;139.13;;
4744;SDS011;2386;42.138;24.746;2023-07-29T05:28:56;141.17;;;129.37;;
4744;SDS011;2386;42.138;24.746;2023-07-29T05:31:21;149.90;;;135.80;;
4744;SDS011;2386;42.138;24.746;2023-07-29T05:36:40;154.97;;;141.63;;
4744;SDS011;2386;42.138;24.746;2023-07-29T05:39:06;149.93;;;138.23;;
4744;SDS011;2386;42.138;24.746;2023-07-29T05:41:32;130.77;;;120.77;;
4744;SDS011;2386;42.138;24.746;2023-07-29T05:43:57;136.67;;;126.10;;
4744;SDS011;2386;42.138;24.746;2023-07-29T05:46:23;158.33;;;145.83;;
4744;SDS011;2386;42.138;24.746;2023-07-29T05:48:48;156.40;;;143.63;;
4744;SDS011;2386;42.138;24.746;2023-07-29T05:51:13;160.70;;;148.50;;
4744;SDS011;2386;42.138;24.746;2023-07-29T05:53:39;174.60;;;160.00;;
4744;SDS011;2386;42.138;24.746;2023-07-29T05:56:04;139.77;;;128.73;;
4744;SDS011;2386;42.138;24.746;2023-07-29T05:58:29;164.97;;;150.57;;
4744;SDS011;2386;42.138;24.746;2023-07-29T06:00:56;134.73;;;124.33;;
4744;SDS011;2386;42.138;24.746;2023-07-29T06:06:38;172.57;;;158.20;;
4744;SDS011;2386;42.138;24.746;2023-07-29T06:09:03;163.90;;;151.33;;
4744;SDS011;2386;42.138;24.746;2023-07-29T06:11:29;193.37;;;177.67;;
4744;SDS011;2386;42.138;24.746;2023-07-29T06:13:54;217.73;;;199.63;;
4744;SDS011;2386;42.138;24.746;2023-07-29T06:19:17;183.57;;;169.03;;
4744;SDS011;2386;42.138;24.746;2023-07-29T06:21:43;187.03;;;172.43;;
4744;SDS011;2386;42.138;24.746;2023-07-29T06:27:11;227.20;;;209.10;;
4744;SDS011;2386;42.138;24.746;2023-07-29T06:29:37;210.13;;;193.43;;
4744;SDS011;2386;42.138;24.746;2023-07-29T06:32:02;195.43;;;180.13;;
4744;SDS011;2386;42.138;24.746;2023-07-29T06:34:28;240.23;;;221.40;;
4744;SDS011;2386;42.138;24.746;2023-07-29T06:36:53;218.90;;;201.80;;
4744;SDS011;2386;42.138;24.746;2023-07-29T06:39:19;237.40;;;218.77;;
4744;SDS011;2386;42.138;24.746;2023-07-29T06:41:44;216.30;;;198.77;;
4744;SDS011;2386;42.138;24.746;2023-07-29T06:44:09;159.70;;;146.87;;
4744;SDS011;2386;42.138;24.746;2023-07-29T06:46:35;158.97;;;146.47;;
4744;SDS011;2386;42.138;24.746;2023-07-29T06:49:00;160.03;;;147.57;;
4744;SDS011;2386;42.138;24.746;2023-07-29T06:51:25;189.60;;;172.40;;
4744;SDS011;2386;42.138;24.746;2023-07-29T06:53:51;184.73;;;169.83;;
4744;SDS011;2386;42.138;24.746;2023-07-29T06:56:17;184.67;;;170.47;;
4744;SDS011;2386;42.138;24.746;2023-07-29T07:01:49;233.57;;;214.47;;
4744;SDS011;2386;42.138;24.746;2023-07-29T07:04:15;278.47;;;256.57;;
4744;SDS011;2386;42.138;24.746;2023-07-29T07:06:40;275.57;;;253.00;;
4744;SDS011;2386;42.138;24.746;2023-07-29T07:09:07;251.60;;;231.33;;
4744;SDS011;2386;42.138;24.746;2023-07-29T07:11:32;244.90;;;226.00;;
4744;SDS011;2386;42.138;24.746;2023-07-29T07:13:57;223.87;;;206.77;;
4744;SDS011;2386;42.138;24.746;2023-07-29T07:16:23;269.47;;;247.57;;
4744;SDS011;2386;42.138;24.746;2023-07-29T07:18:48;273.93;;;251.90;;
4744;SDS011;2386;42.138;24.746;2023-07-29T07:21:14;270.30;;;249.20;;
4744;SDS011;2386;42.138;24.746;2023-07-29T07:23:39;276.73;;;254.80;;
4744;SDS011;2386;42.138;24.746;2023-07-29T07:26:04;248.27;;;229.30;;
4744;SDS011;2386;42.138;24.746;2023-07-29T07:28:30;229.93;;;210.43;;
4744;SDS011;2386;42.138;24.746;2023-07-29T07:30:55;247.27;;;228.33;;
4744;SDS011;2386;42.138;24.746;2023-07-29T07:33:21;253.53;;;234.77;;
4744;SDS011;2386;42.138;24.746;2023-07-29T07:35:47;235.60;;;216.60;;
4744;SDS011;2386;42.138;24.746;2023-07-29T07:38:12;208.70;;;193.47;;
4744;SDS011;2386;42.138;24.746;2023-07-29T07:40:38;220.50;;;202.17;;
4744;SDS011;2386;42.138;24.746;2023-07-29T07:43:03;239.73;;;221.73;;
4744;SDS011;2386;42.138;24.746;2023-07-29T07:45:28;248.27;;;228.10;;
4744;SDS011;2386;42.138;24.746;2023-07-29T07:47:54;285.23;;;262.60;;
4744;SDS011;2386;42.138;24.746;2023-07-29T07:50:19;243.23;;;224.37;;
4744;SDS011;2386;42.138;24.746;2023-07-29T07:52:45;267.70;;;246.43;;
4744;SDS011;2386;42.138;24.746;2023-07-29T07:55:11;252.43;;;233.83;;
4744;SDS011;2386;42.138;24.746;2023-07-29T07:57:36;244.87;;;226.57;;
4744;SDS011;2386;42.138;24.746;2023-07-29T08:00:02;299.80;;;277.73;;
4744;SDS011;2386;42.138;24.746;2023-07-29T08:02:29;299.13;;;276.73;;
4744;SDS011;2386;42.138;24.746;2023-07-29T08:04:55;305.83;;;282.10;;
4744;SDS011;2386;42.138;24.746;2023-07-29T08:07:20;323.13;;;297.27;;
4744;SDS011;2386;42.138;24.746;2023-07-29T08:09:45;278.60;;;256.37;;
4744;SDS011;2386;42.138;24.746;2023-07-29T08:12:11;296.23;;;273.97;;
4744;SDS011;2386;42.138;24.746;2023-07-29T08:14:36;284.37;;;262.03;;
4744;SDS011;2386;42.138;24.746;2023-07-29T08:17:01;286.40;;;265.87;;
4744;SDS011;2386;42.138;24.746;2023-07-29T08:19:27;258.30;;;239.87;;
4744;SDS011;2386;42.138;24.746;2023-07-29T08:21:53;250.77;;;232.63;;
4744;SDS011;2386;42.138;24.746;2023-07-29T08:24:18;297.10;;;272.60;;
4744;SDS011;2386;42.138;24.746;2023-07-29T08:26:44;280.67;;;257.57;;
4744;SDS011;2386;42.138;24.746;2023-07-29T08:29:09;288.20;;;265.30;;
4744;SDS011;2386;42.138;24.746;2023-07-29T08:31:34;290.87;;;268.37;;
4744;SDS011;2386;42.138;24.746;2023-07-29T08:34:00;284.07;;;261.63;;
4744;SDS011;2386;42.138;24.746;2023-07-29T08:36:26;310.70;;;285.93;;
4744;SDS011;2386;42.138;24.746;2023-07-29T08:38:51;281.30;;;260.63;;
4744;SDS011;2386;42.138;24.746;2023-07-29T08:41:21;303.90;;;281.80;;
4744;SDS011;2386;42.138;24.746;2023-07-29T08:44:01;320.93;;;295.80;;
4744;SDS011;2386;42.138;24.746;2023-07-29T08:46:37;361.10;;;331.90;;
4744;SDS011;2386;42.138;24.746;2023-07-29T08:49:03;350.80;;;324.10;;
4744;SDS011;2386;42.138;24.746;2023-07-29T08:51:29;315.30;;;290.63;;
4744;SDS011;2386;42.138;24.746;2023-07-29T08:53:56;387.40;;;357.20;;
4744;SDS011;2386;42.138;24.746;2023-07-29T08:56:23;303.87;;;281.17;;
4744;SDS011;2386;42.138;24.746;2023-07-29T09:02:11;367.47;;;338.07;;
4744;SDS011;2386;42.138;24.746;2023-07-29T09:04:37;332.77;;;307.43;;
4744;SDS011;2386;42.138;24.746;2023-07-29T09:07:02;311.93;;;288.67;;
4744;SDS011;2386;42.138;24.746;2023-07-29T09:12:39;347.43;;;321.37;;
4744;SDS011;2386;42.138;24.746;2023-07-29T09:15:05;317.20;;;294.63;;
4744;SDS011;2386;42.138;24.746;2023-07-29T09:17:31;388.40;;;358.77;;
4744;SDS011;2386;42.138;24.746;2023-07-29T09:19:58;373.33;;;345.93;;
4744;SDS011;2386;42.138;24.746;2023-07-29T09:22:23;329.50;;;304.37;;
4744;SDS011;2386;42.138;24.746;2023-07-29T09:24:50;310.47;;;288.40;;
4744;SDS011;2386;42.138;24.746;2023-07-29T09:27:26;326.33;;;297.43;;
4744;SDS011;2386;42.138;24.746;2023-07-29T09:29:52;346.50;;;320.63;;
4744;SDS011;2386;42.138;24.746;2023-07-29T09:32:19;431.30;;;390.77;;
4744;SDS011;2386;42.138;24.746;2023-07-29T09:34:46;472.27;;;434.83;;
4744;SDS011;2386;42.138;24.746;2023-07-29T09:37:21;348.43;;;319.97;;
4744;SDS011;2386;42.138;24.746;2023-07-29T09:39:47;321.93;;;295.90;;
4744;SDS011;2386;42.138;24.746;2023-07-29T09:42:21;264.87;;;246.07;;
4744;SDS011;2386;42.138;24.746;2023-07-29T09:44:50;305.67;;;282.83;;
4744;SDS011;2386;42.138;24.746;2023-07-29T09:47:20;361.80;;;332.30;;
4744;SDS011;2386;42.138;24.746;2023-07-29T09:49:56;414.33;;;381.83;;
4744;SDS011;2386;42.138;24.746;2023-07-29T09:52:22;489.37;;;447.77;;
4744;SDS011;2386;42.138;24.746;2023-07-29T09:54:48;419.83;;;387.13;;
4744;SDS011;2386;42.138;24.746;2023-07-29T09:57:14;274.37;;;254.73;;
4744;SDS011;2386;42.138;24.746;2023-07-29T09:59:41;252.00;;;234.47;;
4744;SDS011;2386;42.138;24.746;2023-07-29T10:02:13;289.83;;;268.70;;
4744;SDS011;2386;42.138;24.746;2023-07-29T10:04:42;282.03;;;262.80;;
4744;SDS011;2386;42.138;24.746;2023-07-29T10:07:09;236.93;;;220.80;;
4744;SDS011;2386;42.138;24.746;2023-07-29T10:09:35;255.23;;;235.10;;
4744;SDS011;2386;42.138;24.746;2023-07-29T10:12:01;255.27;;;236.77;;
4744;SDS011;2386;42.138;24.746;2023-07-29T10:17:49;256.43;;;238.30;;
4744;SDS011;2386;42.138;24.746;2023-07-29T10:20:15;271.73;;;250.87;;
4744;SDS011;2386;42.138;24.746;2023-07-29T10:22:42;282.17;;;261.13;;
4744;SDS011;2386;42.138;24.746;2023-07-29T10:25:18;252.47;;;235.07;;
4744;SDS011;2386;42.138;24.746;2023-07-29T10:27:52;261.30;;;241.87;;
4744;SDS011;2386;42.138;24.746;2023-07-29T10:30:21;243.77;;;227.63;;
4744;SDS011;2386;42.138;24.746;2023-07-29T10:32:47;255.57;;;237.93;;
4744;SDS011;2386;42.138;24.746;2023-07-29T10:35:15;216.00;;;201.17;;
4744;SDS011;2386;42.138;24.746;2023-07-29T10:37:41;229.13;;;213.53;;
4744;SDS011;2386;42.138;24.746;2023-07-29T10:40:09;250.43;;;233.60;;
4744;SDS011;2386;42.138;24.746;2023-07-29T10:42:35;254.20;;;236.80;;
4744;SDS011;2386;42.138;24.746;2023-07-29T10:45:17;242.40;;;225.87;;
4744;SDS011;2386;42.138;24.746;2023-07-29T10:47:46;247.03;;;229.23;;
4744;SDS011;2386;42.138;24.746;2023-07-29T10:50:20;259.80;;;242.70;;
4744;SDS011;2386;42.138;24.746;2023-07-29T10:52:50;276.13;;;257.13;;
4744;SDS011;2386;42.138;24.746;2023-07-29T10:55:24;262.97;;;243.37;;
4744;SDS011;2386;42.138;24.746;2023-07-29T10:57:52;273.47;;;252.87;;
4744;SDS011;2386;42.138;24.746;2023-07-29T11:00:19;244.37;;;225.47;;
4744;SDS011;2386;42.138;24.746;2023-07-29T11:02:56;263.27;;;244.43;;
4744;SDS011;2386;42.138;24.746;2023-07-29T11:05:41;298.60;;;275.33;;
4744;SDS011;2386;42.138;24.746;2023-07-29T11:08:34;310.70;;;288.00;;
4744;SDS011;2386;42.138;24.746;2023-07-29T11:13:28;327.83;;;303.77;;
4744;SDS011;2386;42.138;24.746;2023-07-29T11:15:58;341.97;;;316.97;;
4744;SDS011;2386;42.138;24.746;2023-07-29T11:18:28;374.60;;;343.80;;
4744;SDS011;2386;42.138;24.746;2023-07-29T11:20:55;377.67;;;347.77;;
4744;SDS011;2386;42.138;24.746;2023-07-29T11:23:27;374.17;;;346.07;;
4744;SDS011;2386;42.138;24.746;2023-07-29T11:33:45;428.73;;;382.67;;
4744;SDS011;2386;42.138;24.746;2023-07-29T11:36:18;428.47;;;394.00;;
4744;SDS011;2386;42.138;24.746;2023-07-29T11:38:44;469.40;;;433.27;;
4744;SDS011;2386;42.138;24.746;2023-07-29T11:41:10;458.97;;;424.73;;
4744;SDS011;2386;42.138;24.746;2023-07-29T11:43:35;358.27;;;332.43;;
4744;SDS011;2386;42.138;24.746;2023-07-29T11:51:11;264.10;;;245.40;;
4744;SDS011;2386;42.138;24.746;2023-07-29T11:53:38;262.03;;;243.57;;
4744;SDS011;2386;42.138;24.746;2023-07-29T11:56:03;259.40;;;240.43;;
4744;SDS011;2386;42.138;24.746;2023-07-29T11:58:29;303.33;;;226.33;;
4744;SDS011;2386;42.138;24.746;2023-07-29T12:00:56;253.03;;;234.83;;
4744;SDS011;2386;42.138;24.746;2023-07-29T12:03:21;240.37;;;223.87;;
4744;SDS011;2386;42.138;24.746;2023-07-29T12:05:48;314.03;;;288.00;;
4744;SDS011;2386;42.138;24.746;2023-07-29T12:08:13;287.73;;;267.73;;
4744;SDS011;2386;42.138;24.746;2023-07-29T12:10:39;288.80;;;268.53;;
4744;SDS011;2386;42.138;24.746;2023-07-29T12:13:05;270.03;;;251.73;;
4744;SDS011;2386;42.138;24.746;2023-07-29T12:15:33;281.87;;;262.37;;
4744;SDS011;2386;42.138;24.746;2023-07-29T12:17:59;292.70;;;272.42;;
4744;SDS011;2386;42.138;24.746;2023-07-29T12:20:25;323.83;;;300.27;;
4744;SDS011;2386;42.138;24.746;2023-07-29T12:23:00;353.77;;;326.70;;
4744;SDS011;2386;42.138;24.746;2023-07-29T12:25:27;305.42;;;282.52;;
4744;SDS011;2386;42.138;24.746;2023-07-29T12:27:54;317.85;;;293.60;;
4744;SDS011;2386;42.138;24.746;2023-07-29T12:30:20;347.33;;;320.70;;
4744;SDS011;2386;42.138;24.746;2023-07-29T12:32:49;325.08;;;300.83;;
4744;SDS011;2386;42.138;24.746;2023-07-29T12:35:15;340.08;;;313.38;;
4744;SDS011;2386;42.138;24.746;2023-07-29T12:37:40;346.55;;;319.30;;
4744;SDS011;2386;42.138;24.746;2023-07-29T12:40:30;339.00;;;312.15;;
4744;SDS011;2386;42.138;24.746;2023-07-29T12:42:56;324.13;;;298.65;;
4744;SDS011;2386;42.138;24.746;2023-07-29T12:45:22;342.63;;;316.23;;
4744;SDS011;2386;42.138;24.746;2023-07-29T12:47:51;333.42;;;306.58;;
4744;SDS011;2386;42.138;24.746;2023-07-29T12:50:16;332.60;;;306.80;;
4744;SDS011;2386;42.138;24.746;2023-07-29T12:52:42;304.25;;;281.85;;
4744;SDS011;2386;42.138;24.746;2023-07-29T12:55:07;288.05;;;266.00;;
4744;SDS011;2386;42.138;24.746;2023-07-29T12:57:34;285.58;;;264.98;;
4744;SDS011;2386;42.138;24.746;2023-07-29T13:00:00;266.55;;;247.45;;
4744;SDS011;2386;42.138;24.746;2023-07-29T13:02:26;193.65;;;181.00;;
4744;SDS011;2386;42.138;24.746;2023-07-29T13:04:51;102.50;;;96.10;;
4744;SDS011;2386;42.138;24.746;2023-07-29T13:07:17;199.43;;;186.35;;
4744;SDS011;2386;42.138;24.746;2023-07-29T13:09:42;210.88;;;197.20;;
4744;SDS011;2386;42.138;24.746;2023-07-29T13:12:07;231.90;;;206.50;;
4744;SDS011;2386;42.138;24.746;2023-07-29T13:14:33;241.70;;;224.43;;
4744;SDS011;2386;42.138;24.746;2023-07-29T13:17:03;246.10;;;226.95;;
4744;SDS011;2386;42.138;24.746;2023-07-29T13:19:29;318.63;;;224.90;;
4744;SDS011;2386;42.138;24.746;2023-07-29T13:21:54;271.25;;;246.70;;
4744;SDS011;2386;42.138;24.746;2023-07-29T13:24:20;330.25;;;247.88;;
4744;SDS011;2386;42.138;24.746;2023-07-29T13:26:48;226.23;;;210.05;;
4744;SDS011;2386;42.138;24.746;2023-07-29T13:29:14;248.45;;;231.02;;
4744;SDS011;2386;42.138;24.746;2023-07-29T13:31:39;248.27;;;231.23;;
4744;SDS011;2386;42.138;24.746;2023-07-29T13:34:05;288.13;;;260.77;;
4744;SDS011;2386;42.138;24.746;2023-07-29T13:36:30;326.45;;;248.68;;
4744;SDS011;2386;42.138;24.746;2023-07-29T13:38:55;276.77;;;254.75;;
4744;SDS011;2386;42.138;24.746;2023-07-29T13:41:21;307.33;;;284.73;;
4744;SDS011;2386;42.138;24.746;2023-07-29T13:43:46;310.27;;;284.73;;
4744;SDS011;2386;42.138;24.746;2023-07-29T13:46:12;321.38;;;295.88;;
4744;SDS011;2386;42.138;24.746;2023-07-29T13:48:37;290.90;;;267.02;;
4744;SDS011;2386;42.138;24.746;2023-07-29T13:51:03;334.02;;;306.88;;
4744;SDS011;2386;42.138;24.746;2023-07-29T13:53:28;355.48;;;326.75;;
4744;SDS011;2386;42.138;24.746;2023-07-29T13:55:53;329.42;;;303.75;;
4744;SDS011;2386;42.138;24.746;2023-07-29T13:58:19;316.45;;;292.83;;
4744;SDS011;2386;42.138;24.746;2023-07-29T14:00:44;282.73;;;262.65;;
4744;SDS011;2386;42.138;24.746;2023-07-29T14:03:10;299.45;;;278.48;;
4744;SDS011;2386;42.138;24.746;2023-07-29T14:05:35;293.67;;;273.02;;
4744;SDS011;2386;42.138;24.746;2023-07-29T14:08:01;282.80;;;263.98;;
4744;SDS011;2386;42.138;24.746;2023-07-29T14:10:26;306.58;;;285.77;;
4744;SDS011;2386;42.138;24.746;2023-07-29T14:12:51;331.65;;;309.00;;
4744;SDS011;2386;42.138;24.746;2023-07-29T14:15:17;408.08;;;377.83;;
4744;SDS011;2386;42.138;24.746;2023-07-29T14:17:43;412.38;;;380.80;;
4744;SDS011;2386;42.138;24.746;2023-07-29T14:20:09;369.77;;;339.13;;
4744;SDS011;2386;42.138;24.746;2023-07-29T14:22:35;396.63;;;365.38;;
4744;SDS011;2386;42.138;24.746;2023-07-29T14:28:22;415.42;;;379.00;;
4744;SDS011;2386;42.138;24.746;2023-07-29T14:30:48;476.73;;;378.23;;
4744;SDS011;2386;42.138;24.746;2023-07-29T14:33:13;515.35;;;361.75;;
4744;SDS011;2386;42.138;24.746;2023-07-29T14:35:39;382.42;;;344.67;;
4744;SDS011;2386;42.138;24.746;2023-07-29T14:38:05;377.63;;;337.67;;
4744;SDS011;2386;42.138;24.746;2023-07-29T14:40:30;390.75;;;348.83;;
4744;SDS011;2386;42.138;24.746;2023-07-29T14:42:56;368.40;;;332.70;;
4744;SDS011;2386;42.138;24.746;2023-07-29T14:45:21;316.42;;;294.33;;
4744;SDS011;2386;42.138;24.746;2023-07-29T14:47:46;331.80;;;308.15;;
4744;SDS011;2386;42.138;24.746;2023-07-29T14:50:12;333.83;;;309.20;;
4744;SDS011;2386;42.138;24.746;2023-07-29T14:52:37;334.23;;;307.90;;
4744;SDS011;2386;42.138;24.746;2023-07-29T14:55:03;329.10;;;305.17;;
4744;SDS011;2386;42.138;24.746;2023-07-29T14:57:29;389.15;;;359.52;;
4744;SDS011;2386;42.138;24.746;2023-07-29T15:03:16;361.42;;;326.83;;
4744;SDS011;2386;42.138;24.746;2023-07-29T15:05:41;373.80;;;340.88;;
4744;SDS011;2386;42.138;24.746;2023-07-29T15:08:06;373.33;;;339.08;;
4744;SDS011;2386;42.138;24.746;2023-07-29T15:10:32;348.17;;;315.03;;
4744;SDS011;2386;42.138;24.746;2023-07-29T15:12:57;329.37;;;304.40;;
4744;SDS011;2386;42.138;24.746;2023-07-29T15:15:22;330.70;;;305.17;;
4744;SDS011;2386;42.138;24.746;2023-07-29T15:17:48;340.90;;;312.80;;